sensor_id;sensor_type;location;lat;lon;timestamp;P1;durP1;ratioP1;P2;durP2;ratioP2
19566;SDS011;9930;49.240;8.548;2023-06-19T00:00:34;7.22;;;6.72;;
19566;SDS011;9930;49.240;8.548;2023-06-19T00:03:03;7.05;;;6.55;;
19566;SDS011;9930;49.240;8.548;2023-06-19T00:05:32;6.65;;;6.15;;
19566;SDS011;9930;49.240;8.548;2023-06-19T00:08:01;7.28;;;6.72;;
19566;SDS011;9930;49.240;8.548;2023-06-19T00:10:28;7.07;;;6.47;;
19566;SDS011;9930;49.240;8.548;2023-06-19T00:12:54;6.60;;;6.10;;
19566;SDS011;9930;49.240;8.548;2023-06-19T00:15:19;6.50;;;6.00;;
19566;SDS011;9930;49.240;8.548;2023-06-19T00:17:48;6.75;;;6.25;;
19566;SDS011;9930;49.240;8.548;2023-06-19T00:20:13;6.68;;;6.25;;
19566;SDS011;9930;49.240;8.548;2023-06-19T00:22:42;6.80;;;6.30;;
19566;SDS011;9930;49.240;8.548;2023-06-19T00:25:08;7.03;;;6.43;;
19566;SDS011;9930;49.240;8.548;2023-06-19T00:27:37;7.32;;;6.72;;
19566;SDS011;9930;49.240;8.548;2023-06-19T00:30:04;7.25;;;6.72;;
19566;SDS011;9930;49.240;8.548;2023-06-19T00:32:31;7.22;;;6.63;;
19566;SDS011;9930;49.240;8.548;2023-06-19T00:34:58;7.00;;;6.50;;
19566;SDS011;9930;49.240;8.548;2023-06-19T00:37:30;7.53;;;6.93;;
19566;SDS011;9930;49.240;8.548;2023-06-19T00:39:58;6.40;;;6.00;;
19566;SDS011;9930;49.240;8.548;2023-06-19T00:42:26;6.97;;;6.40;;
19566;SDS011;9930;49.240;8.548;2023-06-19T00:44:55;6.85;;;6.35;;
19566;SDS011;9930;49.240;8.548;2023-06-19T00:47:33;6.53;;;6.03;;
19566;SDS011;9930;49.240;8.548;2023-06-19T00:50:01;6.63;;;6.13;;
19566;SDS011;9930;49.240;8.548;2023-06-19T00:52:30;6.18;;;5.68;;
19566;SDS011;9930;49.240;8.548;2023-06-19T00:54:58;6.25;;;5.75;;
19566;SDS011;9930;49.240;8.548;2023-06-19T00:57:27;6.07;;;5.68;;
19566;SDS011;9930;49.240;8.548;2023-06-19T00:59:55;6.40;;;5.80;;
19566;SDS011;9930;49.240;8.548;2023-06-19T01:02:24;6.60;;;6.10;;
19566;SDS011;9930;49.240;8.548;2023-06-19T01:04:54;5.70;;;5.25;;
19566;SDS011;9930;49.240;8.548;2023-06-19T01:10:33;5.85;;;5.43;;
19566;SDS011;9930;49.240;8.548;2023-06-19T01:13:10;5.72;;;5.22;;
19566;SDS011;9930;49.240;8.548;2023-06-19T01:15:47;5.72;;;5.32;;
19566;SDS011;9930;49.240;8.548;2023-06-19T01:18:15;6.25;;;5.75;;
19566;SDS011;9930;49.240;8.548;2023-06-19T01:20:44;6.18;;;5.68;;
19566;SDS011;9930;49.240;8.548;2023-06-19T01:23:10;5.88;;;5.38;;
19566;SDS011;9930;49.240;8.548;2023-06-19T01:25:37;6.00;;;5.50;;
19566;SDS011;9930;49.240;8.548;2023-06-19T01:28:05;5.55;;;5.15;;
19566;SDS011;9930;49.240;8.548;2023-06-19T01:30:37;5.70;;;5.20;;
19566;SDS011;9930;49.240;8.548;2023-06-19T01:35:43;4.95;;;4.65;;
19566;SDS011;9930;49.240;8.548;2023-06-19T01:38:15;4.93;;;4.57;;
19566;SDS011;9930;49.240;8.548;2023-06-19T01:40:42;5.03;;;4.55;;
19566;SDS011;9930;49.240;8.548;2023-06-19T01:43:08;4.40;;;4.10;;
19566;SDS011;9930;49.240;8.548;2023-06-19T01:45:35;4.20;;;3.90;;
19566;SDS011;9930;49.240;8.548;2023-06-19T01:48:02;3.70;;;3.47;;
19566;SDS011;9930;49.240;8.548;2023-06-19T01:50:30;3.55;;;3.30;;
19566;SDS011;9930;49.240;8.548;2023-06-19T01:52:58;3.08;;;2.88;;
19566;SDS011;9930;49.240;8.548;2023-06-19T01:55:25;3.40;;;3.10;;
19566;SDS011;9930;49.240;8.548;2023-06-19T01:57:53;3.00;;;2.80;;
19566;SDS011;9930;49.240;8.548;2023-06-19T02:00:22;2.65;;;2.45;;
19566;SDS011;9930;49.240;8.548;2023-06-19T02:02:52;2.58;;;2.38;;
19566;SDS011;9930;49.240;8.548;2023-06-19T02:05:21;2.50;;;2.40;;
19566;SDS011;9930;49.240;8.548;2023-06-19T02:07:49;2.17;;;2.08;;
19566;SDS011;9930;49.240;8.548;2023-06-19T02:10:17;2.53;;;2.20;;
19566;SDS011;9930;49.240;8.548;2023-06-19T02:12:42;2.20;;;2.10;;
19566;SDS011;9930;49.240;8.548;2023-06-19T02:15:08;2.47;;;2.38;;
19566;SDS011;9930;49.240;8.548;2023-06-19T02:17:34;2.17;;;2.08;;
19566;SDS011;9930;49.240;8.548;2023-06-19T02:20:02;2.40;;;2.20;;
19566;SDS011;9930;49.240;8.548;2023-06-19T02:22:33;2.72;;;2.53;;
19566;SDS011;9930;49.240;8.548;2023-06-19T02:25:00;2.47;;;2.28;;
19566;SDS011;9930;49.240;8.548;2023-06-19T02:27:31;2.30;;;2.10;;
19566;SDS011;9930;49.240;8.548;2023-06-19T02:29:59;2.28;;;2.08;;
19566;SDS011;9930;49.240;8.548;2023-06-19T02:32:25;2.42;;;2.22;;
19566;SDS011;9930;49.240;8.548;2023-06-19T02:34:55;3.38;;;2.40;;
19566;SDS011;9930;49.240;8.548;2023-06-19T02:37:24;2.83;;;2.20;;
19566;SDS011;9930;49.240;8.548;2023-06-19T02:39:49;2.03;;;1.90;;
19566;SDS011;9930;49.240;8.548;2023-06-19T02:42:17;2.40;;;2.20;;
19566;SDS011;9930;49.240;8.548;2023-06-19T02:44:48;2.30;;;2.20;;
19566;SDS011;9930;49.240;8.548;2023-06-19T02:47:16;2.05;;;1.95;;
19566;SDS011;9930;49.240;8.548;2023-06-19T02:49:41;2.10;;;2.00;;
19566;SDS011;9930;49.240;8.548;2023-06-19T02:52:07;2.20;;;1.90;;
19566;SDS011;9930;49.240;8.548;2023-06-19T02:54:33;2.40;;;2.20;;
19566;SDS011;9930;49.240;8.548;2023-06-19T02:56:58;3.15;;;2.00;;
19566;SDS011;9930;49.240;8.548;2023-06-19T02:59:25;2.25;;;2.10;;
19566;SDS011;9930;49.240;8.548;2023-06-19T03:01:52;2.35;;;2.15;;
19566;SDS011;9930;49.240;8.548;2023-06-19T03:04:18;2.40;;;2.20;;
19566;SDS011;9930;49.240;8.548;2023-06-19T03:06:44;2.38;;;2.17;;
19566;SDS011;9930;49.240;8.548;2023-06-19T03:09:09;2.40;;;2.20;;
19566;SDS011;9930;49.240;8.548;2023-06-19T03:11:41;2.30;;;2.10;;
19566;SDS011;9930;49.240;8.548;2023-06-19T03:14:07;2.47;;;2.28;;
19566;SDS011;9930;49.240;8.548;2023-06-19T03:16:34;2.53;;;2.33;;
19566;SDS011;9930;49.240;8.548;2023-06-19T03:19:00;2.60;;;2.40;;
19566;SDS011;9930;49.240;8.548;2023-06-19T03:21:28;2.50;;;2.30;;
19566;SDS011;9930;49.240;8.548;2023-06-19T03:23:59;2.50;;;2.30;;
19566;SDS011;9930;49.240;8.548;2023-06-19T03:26:26;2.70;;;2.50;;
19566;SDS011;9930;49.240;8.548;2023-06-19T03:28:55;2.47;;;2.30;;
19566;SDS011;9930;49.240;8.548;2023-06-19T03:31:20;2.60;;;2.40;;
19566;SDS011;9930;49.240;8.548;2023-06-19T03:33:46;2.67;;;2.38;;
19566;SDS011;9930;49.240;8.548;2023-06-19T03:36:14;2.60;;;2.40;;
19566;SDS011;9930;49.240;8.548;2023-06-19T03:38:40;2.45;;;2.28;;
19566;SDS011;9930;49.240;8.548;2023-06-19T03:41:06;2.65;;;2.45;;
19566;SDS011;9930;49.240;8.548;2023-06-19T03:43:34;2.70;;;2.50;;
19566;SDS011;9930;49.240;8.548;2023-06-19T03:46:02;2.80;;;2.60;;
19566;SDS011;9930;49.240;8.548;2023-06-19T03:48:27;3.13;;;2.83;;
19566;SDS011;9930;49.240;8.548;2023-06-19T03:50:53;3.03;;;2.83;;
19566;SDS011;9930;49.240;8.548;2023-06-19T03:53:20;2.80;;;2.60;;
19566;SDS011;9930;49.240;8.548;2023-06-19T03:55:50;2.90;;;2.70;;
19566;SDS011;9930;49.240;8.548;2023-06-19T03:58:21;2.90;;;2.70;;
19566;SDS011;9930;49.240;8.548;2023-06-19T04:00:48;3.92;;;2.95;;
19566;SDS011;9930;49.240;8.548;2023-06-19T04:03:21;2.88;;;2.60;;
19566;SDS011;9930;49.240;8.548;2023-06-19T04:05:47;2.90;;;2.70;;
19566;SDS011;9930;49.240;8.548;2023-06-19T04:08:16;3.00;;;2.80;;
19566;SDS011;9930;49.240;8.548;2023-06-19T04:10:43;2.80;;;2.60;;
19566;SDS011;9930;49.240;8.548;2023-06-19T04:13:12;3.28;;;2.97;;
19566;SDS011;9930;49.240;8.548;2023-06-19T04:15:38;3.08;;;2.88;;
19566;SDS011;9930;49.240;8.548;2023-06-19T04:18:09;3.05;;;2.80;;
19566;SDS011;9930;49.240;8.548;2023-06-19T04:20:35;3.30;;;3.10;;
19566;SDS011;9930;49.240;8.548;2023-06-19T04:23:00;3.05;;;2.85;;
19566;SDS011;9930;49.240;8.548;2023-06-19T04:25:26;3.10;;;2.90;;
19566;SDS011;9930;49.240;8.548;2023-06-19T04:27:55;3.08;;;2.88;;
19566;SDS011;9930;49.240;8.548;2023-06-19T04:30:23;3.22;;;3.00;;
19566;SDS011;9930;49.240;8.548;2023-06-19T04:32:50;3.05;;;2.75;;
19566;SDS011;9930;49.240;8.548;2023-06-19T04:35:18;3.40;;;3.10;;
19566;SDS011;9930;49.240;8.548;2023-06-19T04:37:46;3.53;;;2.90;;
19566;SDS011;9930;49.240;8.548;2023-06-19T04:40:13;3.15;;;2.95;;
19566;SDS011;9930;49.240;8.548;2023-06-19T04:42:39;3.10;;;2.90;;
19566;SDS011;9930;49.240;8.548;2023-06-19T04:45:07;3.95;;;3.35;;
19566;SDS011;9930;49.240;8.548;2023-06-19T04:47:34;3.45;;;3.15;;
19566;SDS011;9930;49.240;8.548;2023-06-19T04:50:00;3.35;;;3.15;;
19566;SDS011;9930;49.240;8.548;2023-06-19T04:52:28;3.15;;;2.95;;
19566;SDS011;9930;49.240;8.548;2023-06-19T04:54:54;3.63;;;3.33;;
19566;SDS011;9930;49.240;8.548;2023-06-19T04:57:19;3.15;;;2.95;;
19566;SDS011;9930;49.240;8.548;2023-06-19T04:59:45;3.30;;;3.10;;
19566;SDS011;9930;49.240;8.548;2023-06-19T05:02:13;2.97;;;2.78;;
19566;SDS011;9930;49.240;8.548;2023-06-19T05:04:41;3.30;;;3.03;;
19566;SDS011;9930;49.240;8.548;2023-06-19T05:07:08;3.65;;;3.20;;
19566;SDS011;9930;49.240;8.548;2023-06-19T05:09:40;3.50;;;3.22;;
19566;SDS011;9930;49.240;8.548;2023-06-19T05:12:08;3.70;;;3.40;;
19566;SDS011;9930;49.240;8.548;2023-06-19T05:14:36;3.20;;;3.00;;
19566;SDS011;9930;49.240;8.548;2023-06-19T05:17:02;3.72;;;3.42;;
19566;SDS011;9930;49.240;8.548;2023-06-19T05:19:29;3.35;;;3.05;;
19566;SDS011;9930;49.240;8.548;2023-06-19T05:21:55;3.50;;;3.30;;
19566;SDS011;9930;49.240;8.548;2023-06-19T05:24:20;3.33;;;3.05;;
19566;SDS011;9930;49.240;8.548;2023-06-19T05:26:46;3.30;;;3.05;;
19566;SDS011;9930;49.240;8.548;2023-06-19T05:29:16;3.10;;;2.90;;
19566;SDS011;9930;49.240;8.548;2023-06-19T05:31:42;3.17;;;2.88;;
19566;SDS011;9930;49.240;8.548;2023-06-19T05:34:08;3.05;;;2.85;;
19566;SDS011;9930;49.240;8.548;2023-06-19T05:36:33;3.20;;;2.90;;
19566;SDS011;9930;49.240;8.548;2023-06-19T05:39:01;2.83;;;2.63;;
19566;SDS011;9930;49.240;8.548;2023-06-19T05:41:27;3.60;;;3.30;;
19566;SDS011;9930;49.240;8.548;2023-06-19T05:43:55;3.38;;;3.17;;
19566;SDS011;9930;49.240;8.548;2023-06-19T05:46:23;3.03;;;2.83;;
19566;SDS011;9930;49.240;8.548;2023-06-19T05:48:51;3.33;;;3.03;;
19566;SDS011;9930;49.240;8.548;2023-06-19T05:51:16;3.65;;;3.30;;
19566;SDS011;9930;49.240;8.548;2023-06-19T05:53:44;3.15;;;2.95;;
19566;SDS011;9930;49.240;8.548;2023-06-19T05:56:11;3.05;;;2.85;;
19566;SDS011;9930;49.240;8.548;2023-06-19T05:58:36;3.33;;;3.13;;
19566;SDS011;9930;49.240;8.548;2023-06-19T06:01:02;3.00;;;2.80;;
19566;SDS011;9930;49.240;8.548;2023-06-19T06:03:30;3.10;;;2.90;;
19566;SDS011;9930;49.240;8.548;2023-06-19T06:05:58;3.15;;;2.95;;
19566;SDS011;9930;49.240;8.548;2023-06-19T06:08:30;3.33;;;3.03;;
19566;SDS011;9930;49.240;8.548;2023-06-19T06:10:58;3.10;;;2.90;;
19566;SDS011;9930;49.240;8.548;2023-06-19T06:13:29;3.15;;;2.95;;
19566;SDS011;9930;49.240;8.548;2023-06-19T06:15:58;3.25;;;3.05;;
19566;SDS011;9930;49.240;8.548;2023-06-19T06:18:24;3.28;;;3.08;;
19566;SDS011;9930;49.240;8.548;2023-06-19T06:20:49;3.28;;;3.08;;
19566;SDS011;9930;49.240;8.548;2023-06-19T06:23:15;3.10;;;2.90;;
19566;SDS011;9930;49.240;8.548;2023-06-19T06:25:41;3.25;;;3.03;;
19566;SDS011;9930;49.240;8.548;2023-06-19T06:28:10;3.38;;;3.17;;
19566;SDS011;9930;49.240;8.548;2023-06-19T06:30:39;5.30;;;3.20;;
19566;SDS011;9930;49.240;8.548;2023-06-19T06:33:05;3.60;;;3.38;;
19566;SDS011;9930;49.240;8.548;2023-06-19T06:35:33;3.42;;;3.08;;
19566;SDS011;9930;49.240;8.548;2023-06-19T06:38:01;3.17;;;2.97;;
19566;SDS011;9930;49.240;8.548;2023-06-19T06:40:33;3.28;;;2.97;;
19566;SDS011;9930;49.240;8.548;2023-06-19T06:42:58;3.60;;;3.30;;
19566;SDS011;9930;49.240;8.548;2023-06-19T06:45:26;4.97;;;3.60;;
19566;SDS011;9930;49.240;8.548;2023-06-19T06:47:56;3.90;;;3.50;;
19566;SDS011;9930;49.240;8.548;2023-06-19T06:50:23;3.60;;;3.25;;
19566;SDS011;9930;49.240;8.548;2023-06-19T06:52:49;3.88;;;3.50;;
19566;SDS011;9930;49.240;8.548;2023-06-19T06:55:15;3.42;;;3.20;;
19566;SDS011;9930;49.240;8.548;2023-06-19T06:57:40;3.53;;;3.33;;
19566;SDS011;9930;49.240;8.548;2023-06-19T07:00:08;3.95;;;3.65;;
19566;SDS011;9930;49.240;8.548;2023-06-19T07:02:38;3.92;;;3.63;;
19566;SDS011;9930;49.240;8.548;2023-06-19T07:05:08;3.50;;;3.20;;
19566;SDS011;9930;49.240;8.548;2023-06-19T07:07:35;3.60;;;3.30;;
19566;SDS011;9930;49.240;8.548;2023-06-19T07:10:01;3.70;;;3.40;;
19566;SDS011;9930;49.240;8.548;2023-06-19T07:12:29;3.58;;;3.38;;
19566;SDS011;9930;49.240;8.548;2023-06-19T07:14:57;3.78;;;3.47;;
19566;SDS011;9930;49.240;8.548;2023-06-19T07:17:34;4.50;;;3.47;;
19566;SDS011;9930;49.240;8.548;2023-06-19T07:20:00;3.97;;;3.65;;
19566;SDS011;9930;49.240;8.548;2023-06-19T07:22:29;3.53;;;3.22;;
19566;SDS011;9930;49.240;8.548;2023-06-19T07:24:58;3.80;;;3.50;;
19566;SDS011;9930;49.240;8.548;2023-06-19T07:27:24;3.90;;;3.60;;
19566;SDS011;9930;49.240;8.548;2023-06-19T07:29:53;4.03;;;3.72;;
19566;SDS011;9930;49.240;8.548;2023-06-19T07:32:20;3.70;;;3.40;;
19566;SDS011;9930;49.240;8.548;2023-06-19T07:34:46;3.80;;;3.50;;
19566;SDS011;9930;49.240;8.548;2023-06-19T07:37:12;3.58;;;3.28;;
19566;SDS011;9930;49.240;8.548;2023-06-19T07:39:43;3.75;;;3.50;;
19566;SDS011;9930;49.240;8.548;2023-06-19T07:42:15;3.85;;;3.55;;
19566;SDS011;9930;49.240;8.548;2023-06-19T07:44:45;3.80;;;3.50;;
19566;SDS011;9930;49.240;8.548;2023-06-19T07:47:12;4.65;;;3.47;;
19566;SDS011;9930;49.240;8.548;2023-06-19T07:49:41;4.40;;;3.47;;
19566;SDS011;9930;49.240;8.548;2023-06-19T07:52:07;3.33;;;3.13;;
19566;SDS011;9930;49.240;8.548;2023-06-19T07:54:34;4.13;;;3.42;;
19566;SDS011;9930;49.240;8.548;2023-06-19T07:57:00;3.22;;;2.97;;
19566;SDS011;9930;49.240;8.548;2023-06-19T07:59:28;3.72;;;3.53;;
19566;SDS011;9930;49.240;8.548;2023-06-19T08:01:57;3.60;;;3.30;;
19566;SDS011;9930;49.240;8.548;2023-06-19T08:04:23;3.78;;;3.47;;
19566;SDS011;9930;49.240;8.548;2023-06-19T08:06:50;3.90;;;3.70;;
19566;SDS011;9930;49.240;8.548;2023-06-19T08:09:18;3.75;;;3.53;;
19566;SDS011;9930;49.240;8.548;2023-06-19T08:11:44;5.45;;;3.58;;
19566;SDS011;9930;49.240;8.548;2023-06-19T08:14:10;4.13;;;3.72;;
19566;SDS011;9930;49.240;8.548;2023-06-19T08:16:38;3.70;;;3.40;;
19566;SDS011;9930;49.240;8.548;2023-06-19T08:19:06;3.80;;;3.50;;
19566;SDS011;9930;49.240;8.548;2023-06-19T08:21:31;3.55;;;3.35;;
19566;SDS011;9930;49.240;8.548;2023-06-19T08:23:59;3.65;;;3.35;;
19566;SDS011;9930;49.240;8.548;2023-06-19T08:26:27;3.65;;;3.35;;
19566;SDS011;9930;49.240;8.548;2023-06-19T08:28:57;3.88;;;3.58;;
19566;SDS011;9930;49.240;8.548;2023-06-19T08:31:24;3.95;;;3.65;;
19566;SDS011;9930;49.240;8.548;2023-06-19T08:33:55;3.75;;;3.45;;
19566;SDS011;9930;49.240;8.548;2023-06-19T08:36:23;3.42;;;3.22;;
19566;SDS011;9930;49.240;8.548;2023-06-19T08:38:51;4.20;;;3.80;;
19566;SDS011;9930;49.240;8.548;2023-06-19T08:41:20;4.50;;;3.80;;
19566;SDS011;9930;49.240;8.548;2023-06-19T08:43:48;4.70;;;3.85;;
19566;SDS011;9930;49.240;8.548;2023-06-19T08:46:15;3.80;;;3.50;;
19566;SDS011;9930;49.240;8.548;2023-06-19T08:48:42;4.07;;;3.78;;
19566;SDS011;9930;49.240;8.548;2023-06-19T08:51:12;3.90;;;3.60;;
19566;SDS011;9930;49.240;8.548;2023-06-19T08:53:45;3.72;;;3.53;;
19566;SDS011;9930;49.240;8.548;2023-06-19T08:56:21;4.53;;;4.13;;
19566;SDS011;9930;49.240;8.548;2023-06-19T08:58:49;4.28;;;3.97;;
19566;SDS011;9930;49.240;8.548;2023-06-19T09:01:20;4.25;;;3.90;;
19566;SDS011;9930;49.240;8.548;2023-06-19T09:03:46;4.10;;;3.80;;
19566;SDS011;9930;49.240;8.548;2023-06-19T09:06:15;4.03;;;3.70;;
19566;SDS011;9930;49.240;8.548;2023-06-19T09:08:41;3.95;;;3.65;;
19566;SDS011;9930;49.240;8.548;2023-06-19T09:11:09;4.20;;;3.90;;
19566;SDS011;9930;49.240;8.548;2023-06-19T09:13:36;4.20;;;3.90;;
19566;SDS011;9930;49.240;8.548;2023-06-19T09:18:46;4.32;;;4.03;;
19566;SDS011;9930;49.240;8.548;2023-06-19T09:21:18;4.18;;;3.88;;
19566;SDS011;9930;49.240;8.548;2023-06-19T09:23:48;4.05;;;3.70;;
19566;SDS011;9930;49.240;8.548;2023-06-19T09:26:19;4.47;;;4.10;;
19566;SDS011;9930;49.240;8.548;2023-06-19T09:28:45;4.18;;;3.88;;
19566;SDS011;9930;49.240;8.548;2023-06-19T09:31:12;4.15;;;3.85;;
19566;SDS011;9930;49.240;8.548;2023-06-19T09:33:38;4.18;;;3.88;;
19566;SDS011;9930;49.240;8.548;2023-06-19T09:36:05;4.60;;;4.30;;
19566;SDS011;9930;49.240;8.548;2023-06-19T09:38:35;4.20;;;3.90;;
19566;SDS011;9930;49.240;8.548;2023-06-19T09:41:06;4.38;;;3.97;;
19566;SDS011;9930;49.240;8.548;2023-06-19T09:43:39;4.43;;;4.13;;
19566;SDS011;9930;49.240;8.548;2023-06-19T09:46:10;4.25;;;3.95;;
19566;SDS011;9930;49.240;8.548;2023-06-19T09:48:41;4.72;;;4.30;;
19566;SDS011;9930;49.240;8.548;2023-06-19T09:53:45;3.88;;;3.55;;
19566;SDS011;9930;49.240;8.548;2023-06-19T09:56:13;4.60;;;4.20;;
19566;SDS011;9930;49.240;8.548;2023-06-19T09:58:44;4.70;;;4.40;;
19566;SDS011;9930;49.240;8.548;2023-06-19T10:01:11;3.85;;;3.63;;
19566;SDS011;9930;49.240;8.548;2023-06-19T10:03:41;4.63;;;4.28;;
19566;SDS011;9930;49.240;8.548;2023-06-19T10:06:12;4.13;;;3.83;;
19566;SDS011;9930;49.240;8.548;2023-06-19T10:08:41;4.30;;;4.00;;
19566;SDS011;9930;49.240;8.548;2023-06-19T10:11:12;4.18;;;3.88;;
19566;SDS011;9930;49.240;8.548;2023-06-19T10:13:42;4.35;;;4.05;;
19566;SDS011;9930;49.240;8.548;2023-06-19T10:16:20;6.60;;;4.30;;
19566;SDS011;9930;49.240;8.548;2023-06-19T10:18:47;4.07;;;3.78;;
19566;SDS011;9930;49.240;8.548;2023-06-19T10:21:16;4.40;;;4.00;;
19566;SDS011;9930;49.240;8.548;2023-06-19T10:23:55;4.25;;;3.95;;
19566;SDS011;9930;49.240;8.548;2023-06-19T10:26:30;4.05;;;3.78;;
19566;SDS011;9930;49.240;8.548;2023-06-19T10:29:13;4.68;;;4.10;;
19566;SDS011;9930;49.240;8.548;2023-06-19T10:31:45;4.20;;;3.90;;
19566;SDS011;9930;49.240;8.548;2023-06-19T10:34:11;4.10;;;3.80;;
19566;SDS011;9930;49.240;8.548;2023-06-19T10:36:37;4.20;;;3.90;;
19566;SDS011;9930;49.240;8.548;2023-06-19T10:39:05;4.40;;;4.10;;
19566;SDS011;9930;49.240;8.548;2023-06-19T10:41:32;3.90;;;3.70;;
19566;SDS011;9930;49.240;8.548;2023-06-19T10:44:05;4.15;;;3.88;;
19566;SDS011;9930;49.240;8.548;2023-06-19T10:46:39;4.93;;;3.75;;
19566;SDS011;9930;49.240;8.548;2023-06-19T10:49:08;3.95;;;3.75;;
19566;SDS011;9930;49.240;8.548;2023-06-19T10:51:39;3.97;;;3.67;;
19566;SDS011;9930;49.240;8.548;2023-06-19T10:54:08;4.50;;;4.10;;
19566;SDS011;9930;49.240;8.548;2023-06-19T10:56:34;5.57;;;4.30;;
19566;SDS011;9930;49.240;8.548;2023-06-19T10:59:06;4.30;;;4.00;;
19566;SDS011;9930;49.240;8.548;2023-06-19T11:01:40;4.10;;;3.80;;
19566;SDS011;9930;49.240;8.548;2023-06-19T11:04:14;4.07;;;3.78;;
19566;SDS011;9930;49.240;8.548;2023-06-19T11:06:41;4.40;;;4.10;;
19566;SDS011;9930;49.240;8.548;2023-06-19T11:09:13;4.07;;;3.78;;
19566;SDS011;9930;49.240;8.548;2023-06-19T11:11:45;4.30;;;4.00;;
19566;SDS011;9930;49.240;8.548;2023-06-19T11:14:13;4.25;;;3.97;;
19566;SDS011;9930;49.240;8.548;2023-06-19T11:16:47;4.38;;;4.07;;
19566;SDS011;9930;49.240;8.548;2023-06-19T11:19:16;4.57;;;4.20;;
19566;SDS011;9930;49.240;8.548;2023-06-19T11:21:51;4.47;;;4.07;;
19566;SDS011;9930;49.240;8.548;2023-06-19T11:24:20;4.10;;;3.80;;
19566;SDS011;9930;49.240;8.548;2023-06-19T11:26:49;3.92;;;3.70;;
19566;SDS011;9930;49.240;8.548;2023-06-19T11:29:23;4.03;;;3.70;;
19566;SDS011;9930;49.240;8.548;2023-06-19T11:31:51;4.72;;;4.38;;
19566;SDS011;9930;49.240;8.548;2023-06-19T11:34:35;4.32;;;4.03;;
19566;SDS011;9930;49.240;8.548;2023-06-19T11:39:40;3.83;;;3.53;;
19566;SDS011;9930;49.240;8.548;2023-06-19T11:42:11;4.13;;;3.83;;
19566;SDS011;9930;49.240;8.548;2023-06-19T11:47:29;3.28;;;3.08;;
19566;SDS011;9930;49.240;8.548;2023-06-19T11:50:03;3.83;;;3.53;;
19566;SDS011;9930;49.240;8.548;2023-06-19T11:52:30;3.70;;;3.28;;
19566;SDS011;9930;49.240;8.548;2023-06-19T11:54:56;3.83;;;3.53;;
19566;SDS011;9930;49.240;8.548;2023-06-19T11:57:23;3.60;;;3.35;;
19566;SDS011;9930;49.240;8.548;2023-06-19T11:59:54;3.22;;;3.03;;
19566;SDS011;9930;49.240;8.548;2023-06-19T12:02:20;3.47;;;3.28;;
19566;SDS011;9930;49.240;8.548;2023-06-19T12:04:46;3.42;;;3.22;;
19566;SDS011;9930;49.240;8.548;2023-06-19T12:07:14;3.65;;;3.45;;
19566;SDS011;9930;49.240;8.548;2023-06-19T12:09:40;3.63;;;3.42;;
19566;SDS011;9930;49.240;8.548;2023-06-19T12:12:08;3.80;;;3.60;;
19566;SDS011;9930;49.240;8.548;2023-06-19T12:14:39;3.60;;;3.40;;
19566;SDS011;9930;49.240;8.548;2023-06-19T12:17:04;3.45;;;3.25;;
19566;SDS011;9930;49.240;8.548;2023-06-19T12:19:33;3.97;;;3.67;;
19566;SDS011;9930;49.240;8.548;2023-06-19T12:22:03;5.78;;;3.75;;
19566;SDS011;9930;49.240;8.548;2023-06-19T12:24:35;4.10;;;3.78;;
19566;SDS011;9930;49.240;8.548;2023-06-19T12:27:01;3.45;;;3.15;;
19566;SDS011;9930;49.240;8.548;2023-06-19T12:29:29;3.63;;;3.40;;
19566;SDS011;9930;49.240;8.548;2023-06-19T12:32:00;3.70;;;3.50;;
19566;SDS011;9930;49.240;8.548;2023-06-19T12:34:29;3.50;;;3.30;;
19566;SDS011;9930;49.240;8.548;2023-06-19T12:36:54;3.70;;;3.47;;
19566;SDS011;9930;49.240;8.548;2023-06-19T12:39:24;3.22;;;3.03;;
19566;SDS011;9930;49.240;8.548;2023-06-19T12:41:51;3.10;;;2.90;;
19566;SDS011;9930;49.240;8.548;2023-06-19T12:44:17;3.50;;;3.30;;
19566;SDS011;9930;49.240;8.548;2023-06-19T12:46:43;3.53;;;3.33;;
19566;SDS011;9930;49.240;8.548;2023-06-19T12:49:08;3.70;;;3.45;;
19566;SDS011;9930;49.240;8.548;2023-06-19T12:51:39;4.05;;;3.75;;
19566;SDS011;9930;49.240;8.548;2023-06-19T12:54:07;3.63;;;3.42;;
19566;SDS011;9930;49.240;8.548;2023-06-19T12:56:33;3.60;;;3.40;;
19566;SDS011;9930;49.240;8.548;2023-06-19T12:59:03;3.15;;;2.95;;
19566;SDS011;9930;49.240;8.548;2023-06-19T13:01:31;6.35;;;3.40;;
19566;SDS011;9930;49.240;8.548;2023-06-19T13:03:59;4.00;;;3.75;;
19566;SDS011;9930;49.240;8.548;2023-06-19T13:06:29;3.58;;;3.28;;
19566;SDS011;9930;49.240;8.548;2023-06-19T13:08:55;3.40;;;3.20;;
19566;SDS011;9930;49.240;8.548;2023-06-19T13:11:21;4.05;;;3.75;;
19566;SDS011;9930;49.240;8.548;2023-06-19T13:13:47;3.70;;;3.40;;
19566;SDS011;9930;49.240;8.548;2023-06-19T13:16:15;3.67;;;3.47;;
19566;SDS011;9930;49.240;8.548;2023-06-19T13:18:41;3.60;;;3.30;;
19566;SDS011;9930;49.240;8.548;2023-06-19T13:21:07;3.47;;;3.17;;
19566;SDS011;9930;49.240;8.548;2023-06-19T13:23:35;3.83;;;3.53;;
19566;SDS011;9930;49.240;8.548;2023-06-19T13:26:01;3.45;;;3.20;;
19566;SDS011;9930;49.240;8.548;2023-06-19T13:28:28;3.40;;;3.20;;
19566;SDS011;9930;49.240;8.548;2023-06-19T13:30:54;3.05;;;2.85;;
19566;SDS011;9930;49.240;8.548;2023-06-19T13:33:22;3.70;;;3.28;;
19566;SDS011;9930;49.240;8.548;2023-06-19T13:35:52;3.63;;;3.42;;
19566;SDS011;9930;49.240;8.548;2023-06-19T13:38:18;3.72;;;3.50;;
19566;SDS011;9930;49.240;8.548;2023-06-19T13:40:44;3.72;;;3.42;;
19566;SDS011;9930;49.240;8.548;2023-06-19T13:43:09;4.18;;;3.35;;
19566;SDS011;9930;49.240;8.548;2023-06-19T13:45:37;3.40;;;3.20;;
19566;SDS011;9930;49.240;8.548;2023-06-19T13:48:05;3.25;;;3.05;;
19566;SDS011;9930;49.240;8.548;2023-06-19T13:50:31;3.28;;;3.08;;
19566;SDS011;9930;49.240;8.548;2023-06-19T13:53:00;3.53;;;3.33;;
19566;SDS011;9930;49.240;8.548;2023-06-19T13:55:27;3.80;;;3.60;;
19566;SDS011;9930;49.240;8.548;2023-06-19T13:57:54;3.80;;;3.60;;
19566;SDS011;9930;49.240;8.548;2023-06-19T14:00:22;3.55;;;3.35;;
19566;SDS011;9930;49.240;8.548;2023-06-19T14:02:48;3.80;;;3.60;;
19566;SDS011;9930;49.240;8.548;2023-06-19T14:05:15;3.30;;;3.10;;
19566;SDS011;9930;49.240;8.548;2023-06-19T14:07:41;3.58;;;3.28;;
19566;SDS011;9930;49.240;8.548;2023-06-19T14:10:09;3.67;;;3.40;;
19566;SDS011;9930;49.240;8.548;2023-06-19T14:12:35;3.38;;;3.17;;
19566;SDS011;9930;49.240;8.548;2023-06-19T14:15:01;3.50;;;3.25;;
19566;SDS011;9930;49.240;8.548;2023-06-19T14:17:36;3.60;;;3.40;;
19566;SDS011;9930;49.240;8.548;2023-06-19T14:20:02;4.15;;;3.85;;
19566;SDS011;9930;49.240;8.548;2023-06-19T14:22:31;3.53;;;3.22;;
19566;SDS011;9930;49.240;8.548;2023-06-19T14:25:02;3.58;;;3.30;;
19566;SDS011;9930;49.240;8.548;2023-06-19T14:27:31;3.45;;;3.25;;
19566;SDS011;9930;49.240;8.548;2023-06-19T14:29:57;4.93;;;4.63;;
19566;SDS011;9930;49.240;8.548;2023-06-19T14:32:26;3.88;;;3.60;;
19566;SDS011;9930;49.240;8.548;2023-06-19T14:34:54;3.65;;;3.45;;
19566;SDS011;9930;49.240;8.548;2023-06-19T14:37:22;3.45;;;3.25;;
19566;SDS011;9930;49.240;8.548;2023-06-19T14:39:48;3.55;;;3.30;;
19566;SDS011;9930;49.240;8.548;2023-06-19T14:42:14;3.58;;;3.38;;
19566;SDS011;9930;49.240;8.548;2023-06-19T14:44:44;3.70;;;3.50;;
19566;SDS011;9930;49.240;8.548;2023-06-19T14:47:12;3.67;;;3.38;;
19566;SDS011;9930;49.240;8.548;2023-06-19T14:49:41;3.30;;;3.10;;
19566;SDS011;9930;49.240;8.548;2023-06-19T14:52:09;3.60;;;3.40;;
19566;SDS011;9930;49.240;8.548;2023-06-19T14:54:34;3.40;;;3.20;;
19566;SDS011;9930;49.240;8.548;2023-06-19T14:57:02;3.80;;;3.50;;
19566;SDS011;9930;49.240;8.548;2023-06-19T14:59:30;3.88;;;3.58;;
19566;SDS011;9930;49.240;8.548;2023-06-19T15:01:56;3.40;;;3.20;;
19566;SDS011;9930;49.240;8.548;2023-06-19T15:04:23;3.47;;;3.17;;
19566;SDS011;9930;49.240;8.548;2023-06-19T15:06:49;3.65;;;3.35;;
19566;SDS011;9930;49.240;8.548;2023-06-19T15:09:17;5.10;;;3.65;;
19566;SDS011;9930;49.240;8.548;2023-06-19T15:11:43;3.55;;;3.25;;
19566;SDS011;9930;49.240;8.548;2023-06-19T15:14:08;3.53;;;3.33;;
19566;SDS011;9930;49.240;8.548;2023-06-19T15:16:39;3.50;;;3.30;;
19566;SDS011;9930;49.240;8.548;2023-06-19T15:19:08;3.60;;;3.40;;
19566;SDS011;9930;49.240;8.548;2023-06-19T15:21:34;3.33;;;3.13;;